Time;durP1;ratioP1;P1;durP2;ratioP2;P2;SDS_P1;SDS_P2;PMS_P1;PMS_P2;Temp;Humidity;BMP_temperature;BMP_pressure;BME280_temperature;BME280_humidity;BME280_pressure;Samples;Min_cycle;Max_cycle;Signal;HPM_P1;HPM_P2
2021/03/06 00:01:00;;;;;;;39.73;16.87;;;;;;;-1.96;64.64;99893.87;124278;1105;104168;-70
2021/03/06 00:03:29;;;;;;;41.37;16.50;;;;;;;-1.98;64.11;99904.29;124283;1105;104251;-71
2021/03/06 00:05:56;;;;;;;45.50;18.93;;;;;;;-1.99;64.79;99897.34;124337;1105;104609;-69
2021/03/06 00:08:24;;;;;;;45.63;17.82;;;;;;;-1.98;64.31;99896.47;124377;1105;104153;-69
2021/03/06 00:10:55;;;;;;;44.50;18.60;;;;;;;-1.99;64.77;99888.67;124329;1105;104698;-70
2021/03/06 00:13:26;;;;;;;45.73;20.30;;;;;;;-1.97;65.19;99895.59;124336;1105;104224;-68
2021/03/06 00:15:55;;;;;;;44.67;18.83;;;;;;;-1.96;64.54;99899.08;124148;1105;104302;-70
2021/03/06 00:18:23;;;;;;;46.30;20.27;;;;;;;-1.98;64.15;99895.62;124210;1105;104229;-69
2021/03/06 00:20:50;;;;;;;46.03;19.87;;;;;;;-1.99;65.31;99896.50;124169;1105;104254;-69
2021/03/06 00:23:18;;;;;;;41.53;17.47;;;;;;;-2.00;64.21;99889.55;124727;1105;104259;-69
2021/03/06 00:25:48;;;;;;;48.07;22.07;;;;;;;-2.02;65.02;99896.52;124234;1105;104210;-69
2021/03/06 00:28:15;;;;;;;48.53;21.53;;;;;;;-2.07;64.90;99895.69;124161;1105;104242;-68
2021/03/06 00:30:45;;;;;;;51.50;22.27;;;;;;;-2.09;64.98;99895.71;124267;1105;104159;-69
2021/03/06 00:33:12;;;;;;;50.50;21.12;;;;;;;-2.13;64.20;99891.39;124252;1105;104290;-68
2021/03/06 00:35:40;;;;;;;51.37;20.87;;;;;;;-2.16;65.00;99891.41;124268;1105;104252;-69
2021/03/06 00:38:07;;;;;;;46.37;20.52;;;;;;;-2.16;64.96;99896.63;124265;1105;104615;-68
2021/03/06 00:40:34;;;;;;;47.67;20.43;;;;;;;-2.19;64.31;99896.64;124052;1105;104197;-69
2021/03/06 00:43:01;;;;;;;53.20;23.12;;;;;;;-2.22;65.10;99894.91;124145;1105;104268;-69
2021/03/06 00:45:28;;;;;;;44.10;20.90;;;;;;;-2.24;64.81;99896.66;124214;1105;104271;-70
2021/03/06 00:47:58;;;;;;;45.63;21.20;;;;;;;-2.27;64.61;99900.16;124286;1105;104178;-69
2021/03/06 00:50:35;;;;;;;46.00;20.10;;;;;;;-2.27;65.16;99902.77;124276;1105;104187;-69
2021/03/06 00:53:03;;;;;;;51.47;20.83;;;;;;;-2.26;64.70;99901.05;124233;1105;104249;-68
2021/03/06 00:55:30;;;;;;;50.50;21.27;;;;;;;-2.29;65.06;99899.31;124250;1105;104249;-68
2021/03/06 00:57:57;;;;;;;44.95;20.60;;;;;;;-2.31;64.16;99898.45;124197;1105;104514;-68
2021/03/06 01:00:25;;;;;;;44.47;19.97;;;;;;;-2.33;65.05;99904.56;124165;1105;104249;-69
2021/03/06 01:02:52;;;;;;;50.65;21.37;;;;;;;-2.39;64.27;99902.84;124171;1106;104236;-68
2021/03/06 01:05:22;;;;;;;42.65;16.45;;;;;;;-2.42;64.83;99902.86;124272;1105;104194;-68
2021/03/06 01:07:50;;;;;;;50.57;20.67;;;;;;;-2.41;65.28;99912.41;124241;1105;104226;-68
2021/03/06 01:10:30;;;;;;;49.03;20.10;;;;;;;-2.41;65.27;99920.23;124258;1105;104306;-69
2021/03/06 01:12:57;;;;;;;47.67;19.47;;;;;;;-2.46;64.90;99917.66;124200;1105;104211;-68
2021/03/06 01:15:28;;;;;;;45.10;19.60;;;;;;;-2.48;64.43;99913.34;124253;1105;104271;-69
2021/03/06 01:17:55;;;;;;;49.65;20.90;;;;;;;-2.50;64.82;99913.34;124275;1105;104178;-69
2021/03/06 01:20:23;;;;;;;48.57;19.83;;;;;;;-2.51;64.76;99914.21;124243;1105;104233;-68
2021/03/06 01:22:53;;;;;;;44.30;19.40;;;;;;;-2.54;64.77;99914.23;124166;1105;104337;-70
2021/03/06 01:25:23;;;;;;;44.27;17.93;;;;;;;-2.55;65.28;99912.50;124262;1105;105111;-69
2021/03/06 01:27:51;;;;;;;40.53;16.67;;;;;;;-2.55;65.06;99917.70;124193;1105;104254;-69
2021/03/06 01:30:22;;;;;;;43.40;17.93;;;;;;;-2.58;65.23;99915.11;124214;1106;104264;-70
2021/03/06 01:32:53;;;;;;;41.00;15.63;;;;;;;-2.60;64.91;99914.25;125361;1104;102873;-71
2021/03/06 01:35:26;;;;;;;41.07;16.80;;;;;;;-2.59;65.06;99923.80;124267;1105;104304;-70
2021/03/06 01:37:55;;;;;;;31.60;13.20;;;;;;;-2.61;65.45;99926.42;124218;1105;104255;-69
2021/03/06 01:40:28;;;;;;;43.53;16.93;;;;;;;-2.61;65.08;99925.55;124193;1104;104310;-69
2021/03/06 01:42:56;;;;;;;;;;;;;;;-2.62;64.92;99909.06;124833;1105;104208;-68
2021/03/06 01:45:26;;;;;;;38.03;14.37;;;;;;;-2.62;65.12;99910.79;124857;1105;104206;-70
2021/03/06 01:47:53;;;;;;;42.23;16.83;;;;;;;-2.61;65.50;99917.73;124616;1105;104264;-68
2021/03/06 01:50:27;;;;;;;41.07;15.83;;;;;;;-2.60;64.75;99919.47;124177;1105;104171;-68
2021/03/06 01:52:59;;;;;;;38.73;16.60;;;;;;;-2.61;65.37;99925.55;125926;1105;101806;-68
2021/03/06 01:55:31;;;;;;;39.13;16.03;;;;;;;-2.61;65.00;99928.16;124310;1105;104172;-68
2021/03/06 01:58:01;;;;;;;37.93;17.23;;;;;;;-2.60;65.50;99929.88;124287;1105;104286;-68
2021/03/06 02:00:31;;;;;;;39.27;15.17;;;;;;;-2.59;65.05;99926.41;124234;1105;104249;-67
2021/03/06 02:03:02;;;;;;;40.20;17.00;;;;;;;-2.56;65.01;99929.00;125230;1105;104274;-70
2021/03/06 02:05:33;;;;;;;42.90;17.30;;;;;;;-2.58;65.62;99929.02;124211;1105;104188;-68
2021/03/06 02:08:03;;;;;;;43.30;19.87;;;;;;;-2.58;64.45;99930.74;124247;1105;104640;-68
2021/03/06 02:10:34;;;;;;;40.23;17.73;;;;;;;-2.63;65.66;99928.17;124232;1105;104249;-68
2021/03/06 02:13:40;;;;;;;38.23;17.77;;;;;;;-2.65;65.53;99927.31;124218;1105;104159;-68
2021/03/06 02:16:38;;;;;;;40.10;17.17;;;;;;;-2.65;65.50;99926.47;124900;1105;104181;-67
2021/03/06 02:19:47;;;;;;;41.37;17.37;;;;;;;-2.67;65.73;99925.61;124196;1105;104280;-67
2021/03/06 02:22:42;;;;;;;43.40;18.07;;;;;;;-2.68;65.09;99924.72;124238;1105;104341;-68
2021/03/06 02:25:47;;;;;;;41.30;16.80;;;;;;;-2.69;65.33;99928.20;124186;1105;104248;-68
2021/03/06 02:28:47;;;;;;;33.90;14.17;;;;;;;-2.70;65.27;99931.67;124668;1105;104255;-68
2021/03/06 02:31:21;;;;;;;35.77;16.77;;;;;;;-2.68;65.42;99936.89;124233;1106;104258;-68
2021/03/06 02:34:03;;;;;;;37.70;18.17;;;;;;;-2.66;65.25;99938.61;124240;1105;104178;-69
2021/03/06 02:36:34;;;;;;;39.27;16.57;;;;;;;-2.65;64.85;99937.73;124016;1105;104229;-69
2021/03/06 02:39:06;;;;;;;38.17;15.67;;;;;;;-2.63;65.21;99945.52;124229;1105;104210;-69
2021/03/06 02:41:37;;;;;;;40.27;17.27;;;;;;;-2.61;65.19;99949.88;124239;1105;104178;-68
2021/03/06 02:44:09;;;;;;;37.73;17.17;;;;;;;-2.61;65.91;99943.78;124154;1105;104691;-68
2021/03/06 02:46:37;;;;;;;31.57;12.37;;;;;;;-2.63;66.13;99943.80;124189;1105;104271;-68
2021/03/06 02:49:04;;;;;;;37.03;14.30;;;;;;;-2.64;66.05;99935.98;124841;1105;104634;-70
2021/03/06 02:51:40;;;;;;;39.50;15.60;;;;;;;-2.63;64.98;99946.41;124522;1105;104181;-69
2021/03/06 02:54:11;;;;;;;37.23;17.23;;;;;;;-2.60;65.49;99948.12;125153;1105;104190;-68
2021/03/06 02:56:39;;;;;;;40.93;17.00;;;;;;;-2.60;65.87;99942.91;123888;1105;104239;-71
2021/03/06 02:59:33;;;;;;;40.93;17.83;;;;;;;-2.60;65.70;99950.72;124257;1105;104156;-68
2021/03/06 03:02:22;;;;;;;34.55;13.83;;;;;;;-2.62;65.65;99957.67;124176;1106;104679;-70
2021/03/06 03:05:09;;;;;;;37.13;15.10;;;;;;;-2.63;66.15;99954.22;124531;1105;104252;-69
2021/03/06 03:08:05;;;;;;;33.00;13.33;;;;;;;-2.64;65.59;99965.52;124523;1105;104383;-68
2021/03/06 03:10:39;;;;;;;37.53;16.30;;;;;;;-2.65;65.12;99966.38;124181;1105;104310;-69
2021/03/06 03:13:14;;;;;;;;;;;;;;;-2.66;66.33;99969.01;124391;1105;104182;-69
2021/03/06 03:15:46;;;;;;;35.85;14.55;;;;;;;-2.69;65.63;99972.48;124159;1105;104252;-68
2021/03/06 03:18:27;;;;;;;38.83;15.83;;;;;;;-2.70;65.29;99973.34;124660;1105;104253;-68
2021/03/06 03:20:57;;;;;;;37.20;15.93;;;;;;;-2.72;66.23;99975.97;124217;1105;104319;-69
2021/03/06 03:23:54;;;;;;;38.03;14.97;;;;;;;-2.71;65.21;99976.82;124095;1105;104206;-69
2021/03/06 03:26:23;;;;;;;37.13;16.37;;;;;;;-2.71;65.74;99977.70;124248;1105;104178;-69
2021/03/06 03:28:53;;;;;;;38.73;14.50;;;;;;;-2.68;65.37;99987.23;124238;1105;104392;-69
2021/03/06 03:31:26;;;;;;;34.23;16.33;;;;;;;-2.66;65.83;99980.28;124391;1105;104255;-68
2021/03/06 03:33:55;;;;;;;35.67;15.53;;;;;;;-2.63;65.52;99979.39;124144;1105;104626;-68
2021/03/06 03:36:26;;;;;;;35.73;15.87;;;;;;;-2.60;66.27;99982.86;124541;1105;104224;-69
2021/03/06 03:38:57;;;;;;;29.73;11.23;;;;;;;-2.60;66.30;99984.59;124249;1105;104181;-68
2021/03/06 03:41:28;;;;;;;34.17;14.87;;;;;;;-2.61;66.20;99986.34;124020;1106;104335;-69
2021/03/06 03:43:58;;;;;;;30.03;13.23;;;;;;;-2.58;66.38;99990.66;125080;1105;103003;-68
2021/03/06 03:46:30;;;;;;;35.00;14.73;;;;;;;-2.57;66.58;99998.48;124144;1105;104401;-68
2021/03/06 03:49:02;;;;;;;35.83;14.90;;;;;;;-2.56;65.36;100001.94;124243;1105;104261;-68
2021/03/06 03:51:34;;;;;;;32.40;12.60;;;;;;;-2.56;65.85;99999.33;124227;1105;104299;-68
2021/03/06 03:54:02;;;;;;;31.97;13.03;;;;;;;-2.53;66.41;100009.74;124188;1105;104203;-73
2021/03/06 03:56:31;;;;;;;32.83;14.27;;;;;;;-2.51;66.54;100009.75;124784;1105;104174;-67
2021/03/06 03:59:01;;;;;;;29.70;12.97;;;;;;;-2.52;65.44;100006.27;126279;1105;103002;-68
2021/03/06 04:01:41;;;;;;;31.73;12.87;;;;;;;-2.51;66.39;100012.36;126235;1105;102075;-68
2021/03/06 04:04:28;;;;;;;33.17;12.97;;;;;;;-2.49;65.91;100019.28;126194;1105;102128;-68
2021/03/06 04:06:57;;;;;;;34.23;13.30;;;;;;;-2.46;66.17;100024.48;126212;1105;102208;-68
2021/03/06 04:09:24;;;;;;;28.43;12.77;;;;;;;-2.44;66.26;100027.07;126272;1105;102136;-69
2021/03/06 04:11:54;;;;;;;32.10;13.67;;;;;;;-2.40;66.46;100020.98;125539;1105;104286;-70
2021/03/06 04:14:24;;;;;;;33.10;13.37;;;;;;;-2.34;65.89;100020.95;124241;1105;104149;-69
2021/03/06 04:16:52;;;;;;;31.87;13.47;;;;;;;-2.31;66.00;100012.27;124257;1105;104294;-69
2021/03/06 04:19:22;;;;;;;30.80;13.40;;;;;;;-2.30;66.68;100019.22;124283;1105;104184;-73
2021/03/06 04:21:49;;;;;;;32.70;12.10;;;;;;;-2.28;66.72;100027.90;125471;1105;102870;-69
2021/03/06 04:24:16;;;;;;;30.50;13.00;;;;;;;-2.27;66.22;100027.03;124386;1105;104325;-69
2021/03/06 04:26:50;;;;;;;33.77;13.33;;;;;;;-2.27;66.27;100025.27;124630;1105;104434;-68
2021/03/06 04:29:21;;;;;;;36.93;14.27;;;;;;;-2.26;65.85;100024.40;124976;1105;104152;-68
2021/03/06 04:31:49;;;;;;;29.70;12.37;;;;;;;-2.27;66.77;100027.03;124151;1105;104249;-69
2021/03/06 04:34:16;;;;;;;31.40;12.17;;;;;;;-2.28;65.60;100023.53;124172;1105;104261;-69
2021/03/06 04:36:43;;;;;;;34.73;14.70;;;;;;;-2.26;66.84;100033.97;124152;1105;104253;-68
2021/03/06 04:39:13;;;;;;;28.17;12.63;;;;;;;-2.26;65.81;100040.03;124175;1105;104213;-68
2021/03/06 04:41:41;;;;;;;34.13;14.43;;;;;;;-2.27;65.96;100040.05;124163;1105;104303;-68
2021/03/06 04:44:08;;;;;;;29.43;12.13;;;;;;;-2.27;66.30;100043.52;125447;1105;104200;-69
2021/03/06 04:46:35;;;;;;;31.17;11.27;;;;;;;-2.28;66.19;100043.53;124166;1105;104203;-69
2021/03/06 04:49:03;;;;;;;31.60;13.30;;;;;;;-2.28;67.00;100041.78;123847;1105;104274;-70
2021/03/06 04:51:32;;;;;;;31.37;13.70;;;;;;;-2.28;66.17;100046.99;125996;1105;102321;-68
2021/03/06 04:53:59;;;;;;;34.60;13.53;;;;;;;-2.27;66.56;100050.48;124193;1104;104185;-68
2021/03/06 04:56:28;;;;;;;27.30;11.30;;;;;;;-2.27;66.78;100053.94;124221;1105;104203;-68
2021/03/06 04:58:55;;;;;;;32.23;13.83;;;;;;;-2.28;66.97;100049.59;124235;1105;104149;-68
2021/03/06 05:01:22;;;;;;;31.97;13.67;;;;;;;-2.26;66.77;100047.86;124184;1105;104441;-68
2021/03/06 05:03:49;;;;;;;33.00;14.43;;;;;;;-2.25;67.37;100049.59;124520;1105;104181;-68
2021/03/06 05:06:19;;;;;;;33.70;13.10;;;;;;;-2.22;66.55;100051.30;124222;1105;104185;-68
2021/03/06 05:08:47;;;;;;;33.83;14.33;;;;;;;-2.19;67.70;100058.26;125522;1105;102897;-69
2021/03/06 05:11:14;;;;;;;36.30;15.65;;;;;;;-2.17;67.70;100049.55;124234;1105;104184;-69
2021/03/06 05:13:44;;;;;;;38.57;16.87;;;;;;;-2.14;66.21;100048.68;124200;1105;104367;-69
2021/03/06 05:16:11;;;;;;;36.03;14.83;;;;;;;-2.11;66.51;100059.95;124128;1105;104268;-69
2021/03/06 05:18:38;;;;;;;36.23;15.97;;;;;;;-2.12;66.69;100057.36;124166;1105;104191;-69
2021/03/06 05:21:06;;;;;;;40.03;16.30;;;;;;;-2.12;67.06;100055.60;124279;1105;104178;-70
2021/03/06 05:23:32;;;;;;;37.77;17.00;;;;;;;-2.12;67.24;100066.03;124206;1105;104265;-70
2021/03/06 05:26:03;;;;;;;39.33;16.87;;;;;;;-2.14;66.71;100065.17;124132;1105;104319;-69
2021/03/06 05:28:30;;;;;;;37.37;16.67;;;;;;;-2.11;67.58;100066.91;124127;1105;104301;-69
2021/03/06 05:30:57;;;;;;;36.68;17.30;;;;;;;-2.04;66.48;100078.17;124144;1105;104248;-69
2021/03/06 05:33:27;;;;;;;35.47;16.37;;;;;;;-2.02;67.71;100071.20;124269;1105;104256;-72
2021/03/06 05:35:54;;;;;;;36.67;18.07;;;;;;;-1.97;66.65;100082.48;124409;1106;104214;-69
2021/03/06 05:38:21;;;;;;;36.23;16.23;;;;;;;-2.00;67.54;100078.13;124202;1105;104578;-68
2021/03/06 05:40:49;;;;;;;35.70;16.13;;;;;;;-2.00;67.52;100083.35;124172;1105;104274;-69
2021/03/06 05:43:18;;;;;;;34.30;16.27;;;;;;;-1.98;66.67;100091.18;124351;1105;104252;-69
2021/03/06 05:45:48;;;;;;;39.93;16.50;;;;;;;-1.96;67.53;100087.67;124311;1105;104171;-69
2021/03/06 05:48:17;;;;;;;35.40;16.23;;;;;;;-1.93;67.54;100093.75;124796;1105;104150;-70
2021/03/06 05:50:48;;;;;;;36.10;16.63;;;;;;;-1.94;67.58;100098.12;124803;1105;104153;-69
2021/03/06 05:53:21;;;;;;;40.80;18.07;;;;;;;-1.92;67.13;100098.98;123939;1105;104181;-68
2021/03/06 05:55:53;;;;;;;36.43;18.17;;;;;;;-1.88;67.66;100115.47;124179;1105;104296;-68
2021/03/06 05:58:22;;;;;;;35.27;17.30;;;;;;;-1.84;66.89;100118.07;124174;1105;104261;-69
2021/03/06 06:00:52;;;;;;;37.33;17.73;;;;;;;-1.84;67.06;100118.07;124255;1105;104210;-69
2021/03/06 06:03:22;;;;;;;35.80;16.65;;;;;;;-1.87;66.76;100122.42;124224;1105;105656;-69
2021/03/06 06:05:56;;;;;;;35.30;17.47;;;;;;;-1.87;66.80;100125.91;125550;1105;102071;-69
2021/03/06 06:08:25;;;;;;;39.93;18.70;;;;;;;-1.88;66.70;100123.29;124393;1105;104737;-70
2021/03/06 06:10:52;;;;;;;36.43;17.00;;;;;;;-1.89;66.74;100129.38;124499;1105;104190;-70
2021/03/06 06:13:22;;;;;;;36.73;17.17;;;;;;;-1.87;68.05;100136.34;124369;1105;104261;-68
2021/03/06 06:15:54;;;;;;;35.90;17.90;;;;;;;-1.84;66.79;100151.98;124219;1105;104201;-72
2021/03/06 06:18:24;;;;;;;43.23;20.63;;;;;;;-1.81;67.70;100151.08;124325;1105;104018;-69
2021/03/06 06:20:51;;;;;;;36.17;17.13;;;;;;;-1.77;67.69;100142.37;124355;1105;104188;-70
2021/03/06 06:23:19;;;;;;;37.80;18.47;;;;;;;-1.69;66.96;100147.55;124376;1105;104190;-69
2021/03/06 06:25:47;;;;;;;39.40;19.82;;;;;;;-1.65;67.18;100155.36;124326;1105;104592;-69
2021/03/06 06:28:23;;;;;;;40.90;20.03;;;;;;;-1.65;66.85;100157.09;124674;1105;104641;-68
2021/03/06 06:31:11;;;;;;;44.13;22.20;;;;;;;-1.65;66.91;100160.58;124060;1105;104265;-68
2021/03/06 06:33:39;;;;;;;44.10;20.63;;;;;;;-1.60;66.57;100165.77;123997;1109;104213;-68
2021/03/06 06:36:06;;;;;;;44.67;22.53;;;;;;;-1.57;67.76;100167.47;123896;1106;104264;-70
2021/03/06 06:38:45;;;;;;;46.80;22.27;;;;;;;-1.58;66.96;100168.34;124131;1105;104188;-69
2021/03/06 06:41:15;;;;;;;43.67;23.27;;;;;;;-1.60;66.99;100170.98;124180;1105;104474;-68
2021/03/06 06:43:42;;;;;;;43.05;21.15;;;;;;;-1.60;67.16;100183.14;124144;1106;104203;-74
2021/03/06 06:46:30;;;;;;;44.57;23.23;;;;;;;-1.57;68.12;100185.74;124333;1106;104171;-69
2021/03/06 06:49:00;;;;;;;38.55;19.70;;;;;;;-1.55;67.47;100181.38;124295;1105;104171;-68
2021/03/06 06:51:27;;;;;;;40.37;20.47;;;;;;;-1.50;67.99;100185.72;124370;1105;104289;-70
2021/03/06 06:54:13;;;;;;;43.70;21.57;;;;;;;-1.42;67.37;100185.67;124249;1106;104341;-70
2021/03/06 06:56:40;;;;;;;44.57;24.13;;;;;;;-1.30;67.83;100192.56;126490;1104;102713;-70
2021/03/06 06:59:08;;;;;;;42.43;21.33;;;;;;;-1.21;67.33;100196.84;126479;1104;102988;-69
2021/03/06 07:01:38;;;;;;;45.00;23.53;;;;;;;-1.17;68.34;100197.72;124957;1105;104252;-68
2021/03/06 07:04:09;;;;;;;38.47;21.03;;;;;;;-1.13;68.10;100192.45;124278;1105;104185;-69
2021/03/06 07:06:56;;;;;;;48.03;23.63;;;;;;;-1.08;68.10;100202.88;124288;1106;104152;-67
2021/03/06 07:09:25;;;;;;;51.20;22.33;;;;;;;-1.10;68.29;100205.48;124221;1105;104634;-69
2021/03/06 07:11:54;;;;;;;55.53;25.37;;;;;;;-1.08;67.60;100203.73;124277;1105;104236;-69
2021/03/06 07:14:40;;;;;;;44.63;23.03;;;;;;;-1.03;68.12;100203.72;124264;1105;104264;-69
2021/03/06 07:17:07;;;;;;;44.10;22.53;;;;;;;-1.11;68.37;100205.52;124340;1105;104261;-69
2021/03/06 07:19:44;;;;;;;42.77;22.80;;;;;;;-1.14;67.81;100206.38;124312;1105;104240;-68
2021/03/06 07:22:14;;;;;;;;;;;;;;;-1.12;67.81;100195.95;124011;1106;104358;-68
2021/03/06 07:24:41;;;;;;;46.67;23.60;;;;;;;-1.05;68.51;100208.09;124251;1105;104242;-71
2021/03/06 07:27:11;;;;;;;46.37;24.80;;;;;;;-0.92;67.95;100207.10;124244;1105;104182;-73
2021/03/06 07:29:38;;;;;;;39.20;17.90;;;;;;;-0.79;68.10;100207.02;124265;1105;104238;-69
2021/03/06 07:32:12;;;;;;;48.50;25.43;;;;;;;-0.70;67.79;100211.30;124267;1105;104194;-71
2021/03/06 07:34:39;;;;;;;48.30;24.00;;;;;;;-0.66;67.94;100213.89;124265;1105;104171;-71
2021/03/06 07:37:10;;;;;;;47.70;22.93;;;;;;;-0.64;68.39;100213.86;124267;1104;104264;-72
2021/03/06 07:39:44;;;;;;;42.27;23.77;;;;;;;-0.67;67.82;100212.16;124311;1105;104156;-69
2021/03/06 07:42:37;;;;;;;40.60;22.75;;;;;;;-0.54;67.34;100214.64;124282;1105;104188;-68
2021/03/06 07:45:08;;;;;;;47.47;26.73;;;;;;;-0.52;67.34;100223.34;124248;1105;104194;-71
2021/03/06 07:47:45;;;;;;;42.17;22.40;;;;;;;-0.42;68.21;100224.15;124213;1105;104235;-71
2021/03/06 07:50:30;;;;;;;41.10;21.13;;;;;;;-0.42;67.99;100225.00;124007;1106;104188;-70
2021/03/06 07:53:01;;;;;;;40.60;22.07;;;;;;;-0.36;68.02;100218.84;124298;1105;106013;-71
2021/03/06 07:55:33;;;;;;;46.60;24.67;;;;;;;-0.34;67.81;100223.19;124306;1105;104226;-70
2021/03/06 07:58:07;;;;;;;43.73;22.97;;;;;;;-0.20;68.31;100230.02;124294;1105;104280;-70
2021/03/06 08:00:47;;;;;;;;;;;;;;;-0.14;67.82;100229.95;124252;1105;104191;-70
2021/03/06 08:03:36;;;;;;;38.20;20.60;;;;;;;-0.12;68.13;100236.05;124242;1105;104165;-70
2021/03/06 08:06:31;;;;;;;40.27;20.73;;;;;;;-0.01;68.20;100242.04;124212;1105;104226;-70
2021/03/06 08:09:13;;;;;;;39.67;22.13;;;;;;;0.11;68.14;100233.19;124237;1105;104184;-70
2021/03/06 08:11:44;;;;;;;41.57;22.20;;;;;;;0.17;68.21;100241.86;124325;1105;104419;-67
2021/03/06 08:14:39;;;;;;;43.43;21.93;;;;;;;0.14;68.50;100243.63;124194;1105;104245;-69
2021/03/06 08:17:33;;;;;;;41.10;20.63;;;;;;;0.21;68.07;100254.88;124250;1105;104284;-71
2021/03/06 08:20:03;;;;;;;43.90;21.00;;;;;;;0.23;68.01;100252.26;124391;1105;104178;-70
2021/03/06 08:22:31;;;;;;;40.67;21.87;;;;;;;0.32;68.12;100248.66;124303;1105;104169;-69
2021/03/06 08:25:20;;;;;;;40.20;19.73;;;;;;;0.42;67.70;100255.53;124282;1105;104288;-69
2021/03/06 08:28:26;;;;;;;40.57;20.53;;;;;;;0.63;68.24;100258.75;124223;1105;104194;-70
2021/03/06 08:30:55;;;;;;;42.57;21.37;;;;;;;0.84;67.89;100253.25;124286;1105;104217;-70
2021/03/06 08:33:24;;;;;;;38.60;19.20;;;;;;;0.95;68.18;100266.19;124306;1105;104193;-69
2021/03/06 08:36:23;;;;;;;34.57;18.30;;;;;;;0.93;67.96;100256.64;124338;1105;104287;-69
2021/03/06 08:38:55;;;;;;;37.03;20.23;;;;;;;0.86;68.22;100256.72;124271;1105;104261;-67
2021/03/06 08:41:23;;;;;;;38.13;20.30;;;;;;;0.82;67.75;100264.62;124232;1105;104165;-70
2021/03/06 08:43:50;;;;;;;38.13;19.87;;;;;;;0.84;67.78;100258.48;124252;1105;104312;-69
2021/03/06 08:46:17;;;;;;;31.37;16.53;;;;;;;0.95;67.98;100262.72;124249;1105;104720;-70
2021/03/06 08:48:46;;;;;;;34.63;16.70;;;;;;;0.94;67.60;100267.08;124247;1105;104341;-72
2021/03/06 08:51:13;;;;;;;39.97;20.53;;;;;;;1.14;68.04;100261.55;124294;1105;104653;-69
2021/03/06 08:53:40;;;;;;;38.03;18.20;;;;;;;1.22;67.90;100274.56;124219;1105;104246;-70
2021/03/06 08:56:07;;;;;;;38.73;19.23;;;;;;;1.21;68.08;100271.95;124302;1104;104165;-71
2021/03/06 08:58:46;;;;;;;39.03;19.75;;;;;;;1.22;67.55;100271.06;124292;1105;104168;-69
2021/03/06 09:01:13;;;;;;;38.53;19.73;;;;;;;1.42;67.93;100262.89;124296;1105;104178;-69
2021/03/06 09:03:41;;;;;;;34.47;17.53;;;;;;;1.30;68.18;100266.58;124192;1105;104192;-69
2021/03/06 09:06:11;;;;;;;34.87;16.60;;;;;;;2.33;68.07;100265.69;124233;1105;104181;-74
2021/03/06 09:08:38;;;;;;;34.73;17.10;;;;;;;2.31;68.34;100270.09;124305;1105;104182;-73
2021/03/06 09:11:05;;;;;;;41.37;19.63;;;;;;;2.17;68.12;100267.73;124380;1105;104303;-71
2021/03/06 09:13:32;;;;;;;36.33;16.55;;;;;;;2.06;68.12;100276.67;124307;1105;104156;-71
2021/03/06 09:16:06;;;;;;;33.15;16.95;;;;;;;1.93;67.45;100275.15;124096;1105;104156;-71
2021/03/06 09:18:38;;;;;;;31.73;15.17;;;;;;;1.77;67.00;100280.69;124226;1105;104638;-69
2021/03/06 09:21:20;;;;;;;26.57;12.67;;;;;;;1.60;67.87;100272.22;124329;1105;104283;-73
2021/03/06 09:23:54;;;;;;;27.00;11.77;;;;;;;1.44;67.50;100279.47;124244;1105;104230;-71
2021/03/06 09:26:26;;;;;;;28.03;13.60;;;;;;;1.25;67.59;100284.98;124296;1105;104150;-71
2021/03/06 09:28:56;;;;;;;31.50;14.73;;;;;;;1.18;67.72;100281.59;124303;1105;104214;-70
2021/03/06 09:31:30;;;;;;;34.87;15.50;;;;;;;1.20;67.68;100284.20;124190;1105;104153;-70
2021/03/06 09:34:01;;;;;;;30.40;16.05;;;;;;;1.60;67.95;100285.33;124280;1105;104181;-70
2021/03/06 09:36:32;;;;;;;29.00;13.53;;;;;;;1.71;68.12;100287.77;124118;1105;104184;-71
2021/03/06 09:39:05;;;;;;;28.63;12.23;;;;;;;1.92;67.56;100284.80;124282;1105;104737;-70
2021/03/06 09:41:42;;;;;;;20.40;8.13;;;;;;;2.42;67.65;100276.02;124170;1105;104154;-71
2021/03/06 09:44:12;;;;;;;23.67;10.10;;;;;;;2.99;68.53;100271.31;124218;1105;104608;-71
2021/03/06 09:46:39;;;;;;;25.97;10.90;;;;;;;3.06;67.43;100280.80;124288;1105;104178;-70
2021/03/06 09:49:14;;;;;;;28.07;12.50;;;;;;;3.31;67.42;100276.75;124244;1105;104235;-70
2021/03/06 09:51:47;;;;;;;28.23;13.27;;;;;;;3.30;67.79;100272.39;124276;1105;104154;-71
2021/03/06 09:54:22;;;;;;;30.15;13.25;;;;;;;3.54;67.20;100268.31;124239;1105;104718;-71
2021/03/06 09:56:53;;;;;;;27.63;11.93;;;;;;;3.53;67.66;100275.32;124237;1105;104261;-69
2021/03/06 09:59:24;;;;;;;25.13;10.77;;;;;;;3.30;67.44;100286.39;124284;1105;104152;-70
2021/03/06 10:01:52;;;;;;;25.93;10.47;;;;;;;3.05;66.75;100288.73;124205;1105;104254;-70
2021/03/06 10:04:25;;;;;;;28.03;12.30;;;;;;;2.89;66.58;100291.69;124298;1105;104233;-71
2021/03/06 10:06:55;;;;;;;29.27;12.17;;;;;;;2.77;67.41;100286.68;124300;1105;104181;-71
2021/03/06 10:09:31;;;;;;;27.40;13.25;;;;;;;2.84;66.78;100288.28;124276;1105;104190;-70
2021/03/06 10:12:06;;;;;;;30.33;13.83;;;;;;;2.72;66.99;100284.16;124279;1105;104242;-71
2021/03/06 10:14:34;;;;;;;25.83;12.43;;;;;;;2.67;66.79;100294.75;124295;1105;104261;-70
2021/03/06 10:17:07;;;;;;;27.63;11.93;;;;;;;2.64;66.63;100286.08;124276;1105;104156;-72
2021/03/06 10:19:51;;;;;;;24.87;11.13;;;;;;;2.60;67.02;100294.91;124255;1105;104306;-73
2021/03/06 10:22:23;;;;;;;30.70;12.27;;;;;;;2.55;67.06;100299.39;124273;1106;104620;-73
2021/03/06 10:24:52;;;;;;;26.73;10.57;;;;;;;2.45;66.82;100290.83;124313;1105;104213;-71
2021/03/06 10:27:38;;;;;;;23.10;10.30;;;;;;;2.48;67.02;100293.40;124256;1105;104216;-72
2021/03/06 10:30:20;;;;;;;26.00;11.27;;;;;;;2.42;66.95;100286.52;124298;1105;104262;-71
2021/03/06 10:32:56;;;;;;;25.90;11.20;;;;;;;2.44;66.47;100291.73;124286;1105;104325;-74
2021/03/06 10:35:46;;;;;;;23.97;9.40;;;;;;;2.68;66.77;100287.74;124235;1105;104679;-72
2021/03/06 10:38:18;;;;;;;31.83;12.70;;;;;;;2.89;66.08;100290.80;124307;1105;104647;-71
2021/03/06 10:41:06;;;;;;;25.10;11.05;;;;;;;2.96;66.47;100285.41;124255;1105;104185;-73
2021/03/06 10:43:39;;;;;;;24.20;10.73;;;;;;;3.02;66.62;100280.91;124295;1105;104192;-70
2021/03/06 10:46:14;;;;;;;26.67;10.53;;;;;;;3.26;66.87;100282.13;124273;1106;104239;-71
2021/03/06 10:48:45;;;;;;;25.33;9.80;;;;;;;3.41;66.17;100275.64;124105;1105;104374;-71
2021/03/06 10:51:12;;;;;;;25.43;10.63;;;;;;;3.57;66.40;100269.09;124270;1105;104274;-71
2021/03/06 10:53:39;;;;;;;24.17;9.73;;;;;;;3.65;66.05;100275.94;124308;1105;104262;-70
2021/03/06 10:56:21;;;;;;;21.93;9.20;;;;;;;3.72;66.59;100272.25;124309;1105;104165;-70
2021/03/06 10:58:53;;;;;;;24.00;10.10;;;;;;;3.90;66.51;100270.03;124258;1105;104277;-69
2021/03/06 11:01:48;;;;;;;22.23;9.10;;;;;;;4.08;66.16;100271.31;124208;1105;104258;-69
2021/03/06 11:04:37;;;;;;;23.60;9.47;;;;;;;4.23;66.19;100270.92;124277;1105;104236;-70
2021/03/06 11:07:09;;;;;;;22.75;9.40;;;;;;;4.29;66.40;100262.86;124294;1105;104351;-71
2021/03/06 11:09:39;;;;;;;27.90;11.00;;;;;;;4.30;65.78;100269.85;124260;1105;104277;-70
2021/03/06 11:12:20;;;;;;;27.03;8.87;;;;;;;4.36;65.47;100263.54;124382;1105;104159;-72
2021/03/06 11:15:15;;;;;;;29.03;10.43;;;;;;;4.34;65.74;100254.81;124308;1105;104175;-71
2021/03/06 11:17:51;;;;;;;24.00;8.10;;;;;;;4.36;65.67;100247.73;124240;1105;104229;-72
2021/03/06 11:20:20;;;;;;;27.23;11.10;;;;;;;4.25;65.07;100252.45;124281;1105;104259;-74
2021/03/06 11:22:51;;;;;;;24.57;8.53;;;;;;;4.07;65.41;100243.30;124076;1106;104204;-76
2021/03/06 11:25:22;;;;;;;21.10;6.93;;;;;;;3.85;64.65;100244.73;124335;1105;104159;-70